SV2BBO-2 Thessaloniki GR current weather conditions

sailwx.info

Wind from 003 at 6 knots gusting 8

Air temperature 12.2° C
Dewpoint -10.1° C

Last reported at 2017-Apr-24 01:08 UTC.
Time now 2017-Apr-24 01:33 UTC

Location: N 40°38' E 022°57'.
View on Google Maps.

See reports from other nearby stations

  
Tides and Currents Weather Stations Pressure Air Temp Water Temp Dewpoint Dewpoint Depression Visibility Wind Speed Wind Dir Waves Ship Positions
date/time (UTC)wind fromknots sea level pressurealtimeterstation pressurevisibilityair tempwater tempwave heightnotes
2017-Apr-24 01:08 003 6 gusting 8 12.2
2017-Apr-24 00:58 002 7 gusting 10 12.2
2017-Apr-24 00:48 007 7 gusting 11 12.2
2017-Apr-24 00:38 357 6 gusting 12 12.2
2017-Apr-24 00:28 018 6 gusting 9 12.2
2017-Apr-24 00:18 013 6 gusting 10 12.8
2017-Apr-24 00:08 008 6 gusting 7 12.8
2017-Apr-23 23:58 036 4 gusting 6 12.8
2017-Apr-23 23:48 033 6 gusting 8 12.8
2017-Apr-23 23:38 052 4 gusting 6 13.3
2017-Apr-23 23:28 358 5 gusting 5 13.3
2017-Apr-23 23:18 009 7 gusting 6 13.3
2017-Apr-23 23:08 358 4 gusting 7 13.9
2017-Apr-23 22:58 009 8 gusting 11 13.9
2017-Apr-23 22:48 005 2 gusting 6 13.9
2017-Apr-23 22:38 357 5 gusting 8 13.9
2017-Apr-23 22:28 351 7 gusting 11 13.9
2017-Apr-23 22:18 021 6 gusting 9 13.9
2017-Apr-23 22:08 357 6 gusting 9 13.9
2017-Apr-23 21:58 005 6 gusting 11 13.9
2017-Apr-23 21:48 356 6 gusting 6 13.9
2017-Apr-23 21:38 004 8 gusting 11 13.9
2017-Apr-23 21:28 353 7 gusting 7 13.9
2017-Apr-23 21:18 339 9 gusting 13 13.9
2017-Apr-23 21:08 353 8 gusting 7 13.9
2017-Apr-23 20:58 340 9 gusting 8 13.9
2017-Apr-23 20:48 020 11 gusting 13 14.4
2017-Apr-23 20:38 357 11 gusting 13 14.4
2017-Apr-23 20:28 358 9 gusting 13 14.4
2017-Apr-23 20:18 338 9 gusting 13 14.4
2017-Apr-23 20:08 351 10 gusting 11 15.0
2017-Apr-23 19:58 010 6 gusting 9 15.0
2017-Apr-23 19:48 004 7 gusting 11 15.0
2017-Apr-23 19:38 353 8 gusting 11 15.0
2017-Apr-23 19:28 329 9 gusting 14 15.0
2017-Apr-23 19:18 358 6 gusting 12 15.6
2017-Apr-23 19:08 15.6
2017-Apr-23 18:58 354 8 gusting 8 15.6
2017-Apr-23 18:48 356 9 gusting 13 15.6
2017-Apr-23 18:38 359 7 gusting 13 15.6
2017-Apr-23 18:28 353 8 gusting 13 16.1
2017-Apr-23 18:18 354 10 gusting 12 16.1
2017-Apr-23 18:08 024 8 gusting 9 16.1
2017-Apr-23 17:58 322 6 gusting 12 16.7
2017-Apr-23 17:48 017 7 gusting 9 17.2
2017-Apr-23 17:38 350 7 gusting 7 17.2
2017-Apr-23 17:28 319 7 gusting 9 17.8
2017-Apr-23 17:18 338 6 gusting 13 18.3
2017-Apr-23 17:08 313 4 gusting 7 18.9
2017-Apr-23 16:58 295 6 gusting 7 18.9
2017-Apr-23 16:48 288 4 gusting 6 18.9
2017-Apr-23 16:38 297 3 gusting 4 18.9
2017-Apr-23 16:28 291 2 gusting 2 18.9
2017-Apr-23 16:18 299 18.9
2017-Apr-23 16:08 210 18.9
2017-Apr-23 15:58 243 2 gusting 3 18.9
2017-Apr-23 15:48 236 3 gusting 5 19.4
2017-Apr-23 15:38 223 2 gusting 2 19.4
2017-Apr-23 15:28 224 4 gusting 7 19.4
2017-Apr-23 15:18 211 3 gusting 5 19.4
2017-Apr-23 15:08 220 4 gusting 5 20.0
2017-Apr-23 14:58 215 3 gusting 4 20.0
2017-Apr-23 14:48 211 4 gusting 5 20.6
2017-Apr-23 14:38 203 3 gusting 4 20.6
2017-Apr-23 14:28 205 6 gusting 7 20.6
2017-Apr-23 14:18 201 6 gusting 6 20.6
2017-Apr-23 14:08 204 5 gusting 5 20.6
2017-Apr-23 13:58 230 3 gusting 5 20.6
2017-Apr-23 13:48 210 5 gusting 8 20.6
2017-Apr-23 13:38 212 4 gusting 8 20.6
2017-Apr-23 13:28 224 6 gusting 6 20.6
2017-Apr-23 13:18 181 6 gusting 6 20.6
2017-Apr-23 13:08 175 3 gusting 5 20.6
2017-Apr-23 12:58 192 6 gusting 7 20.6
2017-Apr-23 12:48 186 5 gusting 6 20.0
2017-Apr-23 12:38 175 5 gusting 5 20.6
2017-Apr-23 12:28 202 5 gusting 6 20.0
2017-Apr-23 12:18 210 4 gusting 6 20.0
2017-Apr-23 12:08 204 3 gusting 3 20.0
2017-Apr-23 11:58 192 4 gusting 6 20.0
2017-Apr-23 11:48 197 4 gusting 7 20.0
2017-Apr-23 11:38 219 3 gusting 4 19.4
2017-Apr-23 11:28 195 3 gusting 5 20.0
2017-Apr-23 11:18 329 4 gusting 7 20.0
2017-Apr-23 11:08 010 5 gusting 5 20.0
2017-Apr-23 10:58 314 5 gusting 6 19.4
2017-Apr-23 10:48 291 3 gusting 5 19.4
2017-Apr-23 10:38 021 6 gusting 11 19.4
2017-Apr-23 10:28 011 4 gusting 4 19.4
2017-Apr-23 10:18 328 6 gusting 5 19.4
2017-Apr-23 10:08 303 5 gusting 10 18.9
2017-Apr-23 09:58 293 5 gusting 8 18.9
2017-Apr-23 09:48 259 5 gusting 5 18.9
2017-Apr-23 09:38 325 5 gusting 6 19.4
2017-Apr-23 09:28 335 3 gusting 5 18.9
2017-Apr-23 09:18 241 3 gusting 3 18.9
2017-Apr-23 09:08 331 5 gusting 7 18.9
2017-Apr-23 08:57 353 6 gusting 11 18.9
2017-Apr-23 08:47 305 7 gusting 11 17.8
2017-Apr-23 08:37 260 4 gusting 6 18.3
2017-Apr-23 08:27 265 6 gusting 4 17.8
2017-Apr-23 08:17 212 3 gusting 4 17.8
2017-Apr-23 08:07 214 2 gusting 5 17.8
2017-Apr-23 07:57 217 4 gusting 5 17.2
2017-Apr-23 07:47 212 4 gusting 6 16.7
2017-Apr-23 07:37 240 3 gusting 5 16.7
2017-Apr-23 07:27 265 3 gusting 4 16.7
2017-Apr-23 07:17 205 3 gusting 4 16.7
2017-Apr-23 07:07 225 4 gusting 5 17.2
2017-Apr-23 06:57 280 3 gusting 4 16.7
2017-Apr-23 06:47 304 5 gusting 5 16.1
2017-Apr-23 06:37 285 3 gusting 6 15.6
2017-Apr-23 06:27 223 4 gusting 4 15.0
2017-Apr-23 06:17 264 3 gusting 5 16.1
2017-Apr-23 06:07 297 4 gusting 6 16.1
2017-Apr-23 05:57 310 2 gusting 3 16.1
2017-Apr-23 05:47 291 2 gusting 4 15.6
2017-Apr-23 05:37 012 2 gusting 2 15.0
2017-Apr-23 05:27 057 13.9
2017-Apr-23 05:17 054 3 gusting 3 12.8
2017-Apr-23 05:07 344 2 gusting 3 12.2
2017-Apr-23 04:57 310 1 gusting 2 12.2
2017-Apr-23 04:47 292 1 gusting 3 11.7
2017-Apr-23 04:37 285 1 gusting 2 11.7
2017-Apr-23 04:27 280 11.7
2017-Apr-23 04:17 341 2 gusting 3 11.7
2017-Apr-23 04:07 056 11.1
2017-Apr-23 03:57 053 1 gusting 2 11.1
2017-Apr-23 03:47 042 2 gusting 3 11.1
2017-Apr-23 03:37 300 11.1
2017-Apr-23 03:27 298 11.7
2017-Apr-23 03:17 298 0 gusting 2 11.7
2017-Apr-23 03:07 298 11.7
2017-Apr-23 02:57 300 2 gusting 2 12.2
2017-Apr-23 02:47 343 12.2
2017-Apr-23 02:37 339 2 gusting 3 12.2
2017-Apr-23 02:27 316 2 gusting 3 11.7
2017-Apr-23 02:17 309 3 gusting 5 11.7
2017-Apr-23 02:07 342 3 gusting 4 11.7
2017-Apr-23 01:57 355 2 gusting 5 11.7
2017-Apr-23 01:47 307 4 gusting 4 11.7
2017-Apr-23 01:38 329 3 gusting 5 11.7
2017-Apr-23 01:28 345 4 gusting 5 11.7
2017-Apr-23 01:18 331 3 gusting 3 12.2
2017-Apr-23 01:08 330 3 gusting 3 12.2
2017-Apr-23 00:58 292 3 gusting 5 12.2
2017-Apr-23 00:48 356 2 gusting 3 12.2
2017-Apr-23 00:38 055 12.2
2017-Apr-23 00:28 044 2 gusting 4 12.2
2017-Apr-23 00:18 329 2 gusting 3 12.2
2017-Apr-23 00:08 344 3 gusting 4 12.2
2017-Apr-22 23:58 001 3 gusting 4 12.2
2017-Apr-22 23:48 349 3 gusting 3 12.2
2017-Apr-22 23:38 357 3 gusting 5 12.2
2017-Apr-22 23:28 359 4 gusting 5 12.2
2017-Apr-22 23:18 010 3 gusting 4 12.8
2017-Apr-22 23:08 294 4 gusting 5 12.8
2017-Apr-22 22:58 338 4 gusting 6 12.8
2017-Apr-22 22:48 047 12.2
2017-Apr-22 22:38 347 2 gusting 2 12.8
2017-Apr-22 22:28 302 2 gusting 4 12.8
2017-Apr-22 22:18 338 2 gusting 3 13.3
2017-Apr-22 22:08 311 2 gusting 3 12.8
2017-Apr-22 21:58 002 2 gusting 3 12.8
2017-Apr-22 21:48 059 2 gusting 3 12.8
2017-Apr-22 21:38 025 2 gusting 3 13.3
2017-Apr-22 21:28 355 3 gusting 7 13.3
2017-Apr-22 21:18 303 2 gusting 2 13.3
2017-Apr-22 21:08 348 2 gusting 4 13.3
2017-Apr-22 20:58 13.3
2017-Apr-22 20:48 020 0 gusting 4 13.3
2017-Apr-22 20:38 339 13.3
2017-Apr-22 20:28 283 4 gusting 4 13.3
2017-Apr-22 20:18 261 3 gusting 6 13.3
2017-Apr-22 20:08 044 3 gusting 3 12.8
2017-Apr-22 19:58 059 13.3
2017-Apr-22 19:48 059 3 gusting 3 13.3
2017-Apr-22 19:38 060 2 gusting 3 13.3
2017-Apr-22 19:28 064 3 gusting 3 13.3
2017-Apr-22 19:18 046 2 gusting 3 13.3
2017-Apr-22 19:08 004 2 gusting 3 13.9
2017-Apr-22 18:58 020 3 gusting 4 13.9
2017-Apr-22 18:48 344 3 gusting 4 13.9
2017-Apr-22 18:38 009 3 gusting 5 13.9
2017-Apr-22 18:28 018 4 gusting 5 13.9
2017-Apr-22 18:18 358 3 gusting 6 14.4
2017-Apr-22 18:08 322 5 gusting 5 14.4
2017-Apr-22 17:58 007 4 gusting 4 14.4
2017-Apr-22 17:48 342 4 gusting 7 14.4
2017-Apr-22 17:38 304 6 gusting 8 14.4
2017-Apr-22 17:28 322 4 gusting 6 14.4
2017-Apr-22 17:18 301 6 gusting 7 14.4
2017-Apr-22 17:08 351 3 gusting 4 14.4
2017-Apr-22 16:58 018 3 gusting 6 15.0
2017-Apr-22 16:48 348 6 gusting 8 15.0
2017-Apr-22 16:38 343 5 gusting 6 15.0
2017-Apr-22 16:28 007 5 gusting 6 15.0
2017-Apr-22 16:18 305 6 gusting 7 15.6
2017-Apr-22 16:08 327 6 gusting 5 15.6
2017-Apr-22 15:58 348 6 gusting 5 15.6
2017-Apr-22 15:48 313 5 gusting 9 15.6
2017-Apr-22 15:38 001 6 gusting 11 16.1
2017-Apr-22 15:28 298 5 gusting 6 16.1
2017-Apr-22 15:18 352 4 gusting 5 16.1
2017-Apr-22 15:08 298 5 gusting 7 16.1
2017-Apr-22 14:58 312 6 gusting 8 16.1
2017-Apr-22 14:48 294 6 gusting 7 16.1
2017-Apr-22 14:38 309 7 gusting 7 16.1
2017-Apr-22 14:28 002 5 gusting 6 16.1
2017-Apr-22 14:18 009 4 gusting 9 16.1
2017-Apr-22 14:08 007 6 gusting 5 16.1
2017-Apr-22 13:58 311 6 gusting 8 16.7
2017-Apr-22 13:48 019 3 gusting 4 16.1
2017-Apr-22 13:38 336 6 gusting 8 16.1
2017-Apr-22 13:28 311 4 gusting 7 16.1
2017-Apr-22 13:18 299 6 gusting 6 16.1
2017-Apr-22 13:08 284 5 gusting 7 16.1
2017-Apr-22 12:58 286 6 gusting 8 16.1
2017-Apr-22 12:48 16.1
2017-Apr-22 12:38 198 2 gusting 5 16.1
2017-Apr-22 12:28 301 5 gusting 3 16.1
2017-Apr-22 12:18 278 5 gusting 7 16.1
2017-Apr-22 12:08 292 4 gusting 5 16.1
2017-Apr-22 11:58 274 6 gusting 6 16.1
2017-Apr-22 11:48 299 3 gusting 7 15.6
2017-Apr-22 11:38 345 4 gusting 5 15.6
2017-Apr-22 11:28 215 2 gusting 2 15.6
2017-Apr-22 11:18 283 4 gusting 9 15.6
2017-Apr-22 11:08 337 3 gusting 5 15.0
2017-Apr-22 10:58 291 3 gusting 5 15.0
2017-Apr-22 10:48 330 5 gusting 6 15.0
2017-Apr-22 10:38 197 5 gusting 6 14.4
2017-Apr-22 10:28 286 5 gusting 5 15.6
2017-Apr-22 10:18 178 5 gusting 6 15.0
2017-Apr-22 10:08 216 5 gusting 6 13.9
2017-Apr-22 09:58 227 4 gusting 6 13.9
2017-Apr-22 09:48 220 5 gusting 7 13.9
2017-Apr-22 09:38 255 4 gusting 6 14.4
2017-Apr-22 09:28 297 1 gusting 7 14.4
2017-Apr-22 09:18 345 3 gusting 6 13.9
2017-Apr-22 09:08 284 5 gusting 7 13.9
2017-Apr-22 08:58 289 5 gusting 6 13.9
2017-Apr-22 08:48 282 4 gusting 8 13.9
2017-Apr-22 08:38 289 5 gusting 8 14.4
2017-Apr-22 08:28 291 5 gusting 6 15.0
2017-Apr-22 08:18 348 4 gusting 6 14.4
2017-Apr-22 08:08 332 5 gusting 6 14.4
2017-Apr-22 07:58 012 3 gusting 4 14.4
2017-Apr-22 07:48 297 3 gusting 6 13.9
2017-Apr-22 07:38 327 2 gusting 5 14.4
2017-Apr-22 07:28 316 5 gusting 7 13.9
2017-Apr-22 07:18 329 4 gusting 5 13.9
2017-Apr-22 07:08 353 2 gusting 7 13.9
2017-Apr-22 06:58 007 5 gusting 8 13.3
2017-Apr-22 06:48 009 5 gusting 9 13.3
2017-Apr-22 06:28 010 6 gusting 7 12.8
2017-Apr-22 06:18 002 6 gusting 8 12.8
2017-Apr-22 06:08 001 6 gusting 6 12.2
2017-Apr-22 05:58 336 4 gusting 5 12.2
2017-Apr-22 05:48 354 6 gusting 6 11.7
2017-Apr-22 05:38 359 6 gusting 8 10.6
2017-Apr-22 05:28 006 2 gusting 7 10.6
2017-Apr-22 05:18 066 3 gusting 4 9.4
2017-Apr-22 05:08 007 4 gusting 6 9.4
2017-Apr-22 04:58 345 4 gusting 3 8.9
2017-Apr-22 04:48 346 3 gusting 6 8.3
2017-Apr-22 04:38 047 5 gusting 9 8.3
2017-Apr-22 04:28 012 6 gusting 6 8.3
2017-Apr-22 04:18 335 6 gusting 9 8.3
2017-Apr-22 04:08 352 6 gusting 9 8.3
2017-Apr-22 03:58 022 6 gusting 9 7.8
2017-Apr-22 03:48 004 5 gusting 10 7.8
2017-Apr-22 03:38 357 7 gusting 9 8.3
2017-Apr-22 03:28 353 5 gusting 7 7.8
2017-Apr-22 03:18 358 6 gusting 11 7.8
2017-Apr-22 03:08 007 8 gusting 7 7.8
2017-Apr-22 02:58 332 8 gusting 9 7.8
2017-Apr-22 02:48 358 8 gusting 9 7.8
2017-Apr-22 02:38 338 4 gusting 6 8.3
2017-Apr-22 02:28 344 6 gusting 8 8.3
2017-Apr-22 02:18 334 6 gusting 9 8.3
2017-Apr-22 02:08 351 6 gusting 9 8.3
2017-Apr-22 01:58 005 7 gusting 12 8.3
2017-Apr-22 01:48 003 6 gusting 8 8.3
2017-Apr-22 01:39 002 6 gusting 10 8.3
2017-Apr-22 01:29 348 5 gusting 6 8.3
2017-Apr-22 01:19 342 6 gusting 9 8.3
2017-Apr-22 01:09 354 7 gusting 10 8.3